createdAt,value
2016-12-14T00:00:44.090Z,19.97
2016-12-14T00:01:43.762Z,20.13
2016-12-14T00:02:44.074Z,19.97
2016-12-14T00:03:44.043Z,20.1
2016-12-14T00:04:43.714Z,19.97
2016-12-14T00:05:44.040Z,20.05
2016-12-14T00:06:43.992Z,19.95
2016-12-14T00:07:43.374Z,20.1
2016-12-14T00:08:43.957Z,19.98
2016-12-14T00:09:43.937Z,20
2016-12-14T00:10:43.924Z,19.98
2016-12-14T00:11:43.911Z,19.98
2016-12-14T00:12:43.894Z,20.05
2016-12-14T00:13:43.877Z,19.95
2016-12-14T00:14:43.863Z,19.95
2016-12-14T00:15:43.845Z,19.94
2016-12-14T00:16:43.515Z,20.01
2016-12-14T00:17:43.810Z,19.94
2016-12-14T00:18:43.171Z,19.89
2016-12-14T00:19:43.457Z,19.94
2016-12-14T00:20:43.442Z,19.95
2016-12-14T00:21:43.748Z,19.98
2016-12-14T00:22:43.412Z,20
2016-12-14T00:23:43.393Z,19.95
2016-12-14T00:24:43.063Z,19.97
2016-12-14T00:25:43.682Z,19.97
2016-12-14T00:26:43.659Z,19.95
2016-12-14T00:27:43.329Z,20.02
2016-12-14T00:28:43.312Z,19.97
2016-12-14T00:29:43.614Z,20
2016-12-14T00:30:43.596Z,19.95
2016-12-14T00:31:43.583Z,19.9
2016-12-14T00:32:43.566Z,19.97
2016-12-14T00:33:43.547Z,19.83
2016-12-14T00:34:43.531Z,19.87
2016-12-14T00:35:43.512Z,19.83
2016-12-14T00:36:43.497Z,19.95
2016-12-14T00:37:43.164Z,19.89
2016-12-14T00:38:43.147Z,19.85
2016-12-14T00:39:43.450Z,19.86
2016-12-14T00:40:43.120Z,19.87
2016-12-14T00:41:43.413Z,19.82
2016-12-14T00:42:43.407Z,19.87
2016-12-14T00:43:42.753Z,19.83
2016-12-14T00:44:43.365Z,19.82
2016-12-14T00:45:43.348Z,19.8
2016-12-14T00:46:43.331Z,19.87
2016-12-14T00:47:43.317Z,19.83
2016-12-14T00:48:43.300Z,19.8
2016-12-14T00:49:43.303Z,19.8
2016-12-14T00:50:42.961Z,19.86
2016-12-14T00:51:43.289Z,19.83
2016-12-14T00:52:43.238Z,19.82
2016-12-14T00:53:43.217Z,19.8
2016-12-14T00:54:42.889Z,19.82
2016-12-14T00:55:43.182Z,19.8
2016-12-14T00:56:42.855Z,19.83
2016-12-14T00:57:43.156Z,19.82
2016-12-14T00:58:43.136Z,19.79
2016-12-14T00:59:42.803Z,19.79
2016-12-14T01:00:43.102Z,19.8
2016-12-14T01:01:42.765Z,19.83
2016-12-14T01:02:43.067Z,19.79
2016-12-14T01:03:43.050Z,19.82
2016-12-14T01:04:43.035Z,19.8
2016-12-14T01:05:42.699Z,19.82
2016-12-14T01:06:42.725Z,19.8
2016-12-14T01:07:42.998Z,19.82
2016-12-14T01:08:42.965Z,19.82
2016-12-14T01:09:42.641Z,19.79
2016-12-14T01:10:42.938Z,19.76
2016-12-14T01:11:42.605Z,19.78
2016-12-14T01:12:42.913Z,19.82
2016-12-14T01:13:42.891Z,19.79
2016-12-14T01:14:42.876Z,19.78
2016-12-14T01:15:42.856Z,19.82
2016-12-14T01:16:42.843Z,19.82
2016-12-14T01:17:42.506Z,19.75
2016-12-14T01:18:42.802Z,19.79
2016-12-14T01:19:42.476Z,19.78
2016-12-14T01:20:42.777Z,19.7
2016-12-14T01:21:42.757Z,19.75
2016-12-14T01:22:42.751Z,19.78
2016-12-14T01:23:42.724Z,19.76
2016-12-14T01:24:42.707Z,19.72
2016-12-14T01:25:42.694Z,19.68
2016-12-14T01:26:42.718Z,19.68
2016-12-14T01:27:42.651Z,19.72
2016-12-14T01:28:42.640Z,19.72
2016-12-14T01:29:42.622Z,19.67
2016-12-14T01:30:42.613Z,19.76
2016-12-14T01:31:42.592Z,19.68
2016-12-14T01:32:42.580Z,19.68
2016-12-14T01:33:42.242Z,19.64
2016-12-14T01:34:41.914Z,19.7
2016-12-14T01:35:42.527Z,19.72
2016-12-14T01:36:42.188Z,19.71
2016-12-14T01:37:42.488Z,19.65
2016-12-14T01:38:42.471Z,19.67
2016-12-14T01:39:42.457Z,19.62
2016-12-14T01:40:42.437Z,19.65
2016-12-14T01:41:42.111Z,19.68
2016-12-14T01:42:42.414Z,19.65
2016-12-14T01:43:41.759Z,19.67
2016-12-14T01:44:42.062Z,19.8
2016-12-14T01:45:42.357Z,19.65
2016-12-14T01:46:42.047Z,19.6
2016-12-14T01:47:42.322Z,19.7
2016-12-14T01:48:42.301Z,19.65
2016-12-14T01:49:42.289Z,19.67
2016-12-14T01:50:42.272Z,19.79
2016-12-14T01:51:42.251Z,19.8
2016-12-14T01:52:42.246Z,19.75
2016-12-14T01:53:41.913Z,19.67
2016-12-14T01:54:42.203Z,19.68
2016-12-14T01:55:42.188Z,19.67
2016-12-14T01:56:42.181Z,19.72
2016-12-14T01:57:42.156Z,19.72
2016-12-14T01:58:41.821Z,19.68
2016-12-14T01:59:42.127Z,19.68
2016-12-14T02:00:42.110Z,19.72
2016-12-14T02:01:42.088Z,19.78
2016-12-14T02:02:42.073Z,19.64
2016-12-14T02:03:41.742Z,19.67
2016-12-14T02:04:42.039Z,19.65
2016-12-14T02:05:42.028Z,19.78
2016-12-14T02:06:42.006Z,19.68
2016-12-14T02:07:41.996Z,19.65
2016-12-14T02:08:41.974Z,19.72
2016-12-14T02:09:41.687Z,19.71
2016-12-14T02:10:41.944Z,19.68
2016-12-14T02:11:41.929Z,19.64
2016-12-14T02:12:41.588Z,19.61
2016-12-14T02:13:41.892Z,19.76
2016-12-14T02:14:41.561Z,19.62
2016-12-14T02:15:41.861Z,19.76
2016-12-14T02:16:41.523Z,19.67
2016-12-14T02:17:41.825Z,19.64
2016-12-14T02:18:41.492Z,19.67
2016-12-14T02:19:41.793Z,19.71
2016-12-14T02:20:41.773Z,19.68
2016-12-14T02:21:41.443Z,19.67
2016-12-14T02:22:41.743Z,19.67
2016-12-14T02:23:41.726Z,19.68
2016-12-14T02:24:41.703Z,19.76
2016-12-14T02:25:41.691Z,19.62
2016-12-14T02:26:41.684Z,19.67
2016-12-14T02:27:41.655Z,19.71
2016-12-14T02:28:41.643Z,19.67
2016-12-14T02:29:41.314Z,19.58
2016-12-14T02:30:41.615Z,19.71
2016-12-14T02:31:41.592Z,19.6
2016-12-14T02:32:41.576Z,19.64
2016-12-14T02:33:41.239Z,19.62
2016-12-14T02:34:41.542Z,19.62
2016-12-14T02:35:41.207Z,19.61
2016-12-14T02:36:41.508Z,19.61
2016-12-14T02:37:41.496Z,19.62
2016-12-14T02:38:41.469Z,19.62
2016-12-14T02:39:41.140Z,19.62
2016-12-14T02:40:41.445Z,19.7
2016-12-14T02:41:41.421Z,19.65
2016-12-14T02:42:41.405Z,19.71
2016-12-14T02:43:41.395Z,19.65
2016-12-14T02:44:41.380Z,19.65
2016-12-14T02:45:41.357Z,19.67
2016-12-14T02:46:41.021Z,19.72
2016-12-14T02:47:41.322Z,19.7
2016-12-14T02:48:41.310Z,19.71
2016-12-14T02:49:41.288Z,19.7
2016-12-14T02:50:41.279Z,19.67
2016-12-14T02:51:41.258Z,19.71
2016-12-14T02:52:40.928Z,19.67
2016-12-14T02:53:41.229Z,19.65
2016-12-14T02:54:40.896Z,19.62
2016-12-14T02:55:41.196Z,19.7
2016-12-14T02:56:41.181Z,19.58
2016-12-14T02:57:40.850Z,19.64
2016-12-14T02:58:40.830Z,19.61
2016-12-14T02:59:41.123Z,19.68
2016-12-14T03:00:41.158Z,19.65
2016-12-14T03:01:41.091Z,19.62
2016-12-14T03:02:41.082Z,19.67
2016-12-14T03:03:41.059Z,19.64
2016-12-14T03:04:41.046Z,19.61
2016-12-14T03:05:40.710Z,19.62
2016-12-14T03:06:41.007Z,19.62
2016-12-14T03:07:40.990Z,19.6
2016-12-14T03:08:40.975Z,19.61
2016-12-14T03:09:40.647Z,19.61
2016-12-14T03:10:40.625Z,19.6
2016-12-14T03:11:40.625Z,19.64
2016-12-14T03:12:40.910Z,19.57
2016-12-14T03:13:40.894Z,19.58
2016-12-14T03:14:40.239Z,19.71
2016-12-14T03:15:40.538Z,19.57
2016-12-14T03:16:40.526Z,19.55
2016-12-14T03:17:40.823Z,19.64
2016-12-14T03:18:40.808Z,19.61
2016-12-14T03:19:40.211Z,19.61
2016-12-14T03:20:40.779Z,19.52
2016-12-14T03:21:40.446Z,19.62
2016-12-14T03:22:40.745Z,19.58
2016-12-14T03:23:40.724Z,19.6
2016-12-14T03:24:40.703Z,19.58
2016-12-14T03:25:40.701Z,19.58
2016-12-14T03:26:40.387Z,19.6
2016-12-14T03:27:40.661Z,19.6
2016-12-14T03:28:40.327Z,19.57
2016-12-14T03:29:40.623Z,19.57
2016-12-14T03:30:40.615Z,19.5
2016-12-14T03:31:40.596Z,19.55
2016-12-14T03:32:40.577Z,19.52
2016-12-14T03:33:40.557Z,19.6
2016-12-14T03:34:40.542Z,19.55
2016-12-14T03:35:40.524Z,19.58
2016-12-14T03:36:40.189Z,19.57
2016-12-14T03:37:40.501Z,19.55
2016-12-14T03:38:40.509Z,19.55
2016-12-14T03:39:40.136Z,19.58
2016-12-14T03:40:40.442Z,19.58
2016-12-14T03:41:40.425Z,19.58
2016-12-14T03:42:39.774Z,19.55
2016-12-14T03:43:40.408Z,19.57
2016-12-14T03:44:40.372Z,19.61
2016-12-14T03:45:40.360Z,19.6
2016-12-14T03:46:40.339Z,19.7
2016-12-14T03:47:40.006Z,19.65
2016-12-14T03:48:39.991Z,19.57
2016-12-14T03:49:40.288Z,19.67
2016-12-14T03:50:39.950Z,19.6
2016-12-14T03:51:40.260Z,19.57
2016-12-14T03:52:40.242Z,19.64
2016-12-14T03:53:40.227Z,19.61
2016-12-14T03:54:40.207Z,19.58
2016-12-14T03:55:39.562Z,19.6
2016-12-14T03:56:39.868Z,19.61
2016-12-14T03:57:39.842Z,19.62
2016-12-14T03:58:39.825Z,19.58
2016-12-14T03:59:40.121Z,19.62
2016-12-14T04:00:40.116Z,19.61
2016-12-14T04:01:40.293Z,19.55
2016-12-14T04:02:39.754Z,19.6
2016-12-14T04:03:39.427Z,19.6
2016-12-14T04:04:39.750Z,19.52
2016-12-14T04:05:40.027Z,19.62
2016-12-14T04:06:39.692Z,19.58
2016-12-14T04:07:39.990Z,19.53
2016-12-14T04:08:39.653Z,19.58
2016-12-14T04:09:39.644Z,19.55
2016-12-14T04:10:39.944Z,19.6
2016-12-14T04:11:39.920Z,19.65
2016-12-14T04:12:39.912Z,19.57
2016-12-14T04:13:39.891Z,19.62
2016-12-14T04:14:39.878Z,19.68
2016-12-14T04:15:39.859Z,19.55
2016-12-14T04:16:39.839Z,19.52
2016-12-14T04:17:39.826Z,19.52
2016-12-14T04:18:39.489Z,19.55
2016-12-14T04:19:39.476Z,19.58
2016-12-14T04:20:39.768Z,19.57
2016-12-14T04:21:39.755Z,19.57
2016-12-14T04:22:39.420Z,19.55
2016-12-14T04:23:39.721Z,19.55
2016-12-14T04:24:39.704Z,19.58
2016-12-14T04:25:39.374Z,19.55
2016-12-14T04:26:39.673Z,19.55
2016-12-14T04:27:39.346Z,19.6
2016-12-14T04:28:39.640Z,19.57
2016-12-14T04:29:39.620Z,19.52
2016-12-14T04:30:39.611Z,19.61
2016-12-14T04:31:39.273Z,19.55
2016-12-14T04:32:39.574Z,19.52
2016-12-14T04:33:39.239Z,19.55
2016-12-14T04:34:39.539Z,19.57
2016-12-14T04:35:39.205Z,19.53
2016-12-14T04:36:39.190Z,19.53
2016-12-14T04:37:39.494Z,19.45
2016-12-14T04:38:39.157Z,19.52
2016-12-14T04:39:39.139Z,19.5
2016-12-14T04:40:39.437Z,19.45
2016-12-14T04:41:39.420Z,19.57
2016-12-14T04:42:39.406Z,19.53
2016-12-14T04:43:38.757Z,19.55
2016-12-14T04:44:39.372Z,19.6
2016-12-14T04:45:39.036Z,19.53
2016-12-14T04:46:39.336Z,19.45
2016-12-14T04:47:39.322Z,19.45
2016-12-14T04:48:38.995Z,19.43
2016-12-14T04:49:39.286Z,19.43
2016-12-14T04:50:39.283Z,19.43
2016-12-14T04:51:39.257Z,19.5
2016-12-14T04:52:39.238Z,19.45
2016-12-14T04:53:39.222Z,19.47
2016-12-14T04:54:39.207Z,19.42
2016-12-14T04:55:39.187Z,19.45
2016-12-14T04:56:39.171Z,19.53
2016-12-14T04:57:39.157Z,19.42
2016-12-14T04:58:39.147Z,19.42
2016-12-14T04:59:39.116Z,19.45
2016-12-14T05:00:39.107Z,19.47
2016-12-14T05:01:38.767Z,19.42
2016-12-14T05:02:39.073Z,19.43
2016-12-14T05:03:39.083Z,19.45
2016-12-14T05:04:39.058Z,19.45
2016-12-14T05:05:39.019Z,19.53
2016-12-14T05:06:39.001Z,19.58
2016-12-14T05:07:38.983Z,19.58
2016-12-14T05:08:38.973Z,19.6
2016-12-14T05:09:38.640Z,19.75
2016-12-14T05:10:38.935Z,19.79
2016-12-14T05:11:38.602Z,19.82
2016-12-14T05:12:38.901Z,19.92
2016-12-14T05:13:38.893Z,20.05
2016-12-14T05:14:38.550Z,20.02
2016-12-14T05:15:38.859Z,20.13
2016-12-14T05:16:38.838Z,20.2
2016-12-14T05:17:38.509Z,20.17
2016-12-14T05:18:38.799Z,20.13
2016-12-14T05:19:38.782Z,20.17
2016-12-14T05:20:38.769Z,20.15
2016-12-14T05:21:38.440Z,20.25
2016-12-14T05:22:38.739Z,20.17
2016-12-14T05:23:38.725Z,20.25
2016-12-14T05:24:38.388Z,20.19
2016-12-14T05:25:38.689Z,20.23
2016-12-14T05:26:38.669Z,20.23
2016-12-14T05:27:38.655Z,20.17
2016-12-14T05:28:38.322Z,20.25
2016-12-14T05:29:38.616Z,20.27
2016-12-14T05:30:38.599Z,20.33
2016-12-14T05:31:38.584Z,20.33
2016-12-14T05:32:38.252Z,20.35
2016-12-14T05:33:38.547Z,20.33
2016-12-14T05:34:38.224Z,20.38
2016-12-14T05:35:38.519Z,20.3
2016-12-14T05:36:38.510Z,20.34
2016-12-14T05:37:38.170Z,20.34
2016-12-14T05:38:38.469Z,20.34
2016-12-14T05:39:38.452Z,20.31
2016-12-14T05:40:38.437Z,20.33
2016-12-14T05:41:38.419Z,20.31
2016-12-14T05:42:38.098Z,20.31
2016-12-14T05:43:38.391Z,20.31
2016-12-14T05:44:38.377Z,20.33
2016-12-14T05:45:38.355Z,20.34
2016-12-14T05:46:38.337Z,20.33
2016-12-14T05:47:38.329Z,20.38
2016-12-14T05:48:38.307Z,20.27
2016-12-14T05:49:37.969Z,20.33
2016-12-14T05:50:38.271Z,20.38
2016-12-14T05:51:37.943Z,20.3
2016-12-14T05:52:37.918Z,20.35
2016-12-14T05:53:37.590Z,20.37
2016-12-14T05:54:37.886Z,20.31
2016-12-14T05:55:38.216Z,20.27
2016-12-14T05:56:37.859Z,20.27
2016-12-14T05:57:37.836Z,20.35
2016-12-14T05:58:37.825Z,20.34
2016-12-14T05:59:37.815Z,20.3
2016-12-14T06:00:38.104Z,20.33
2016-12-14T06:01:38.091Z,20.34
2016-12-14T06:02:38.072Z,20.38
2016-12-14T06:03:38.063Z,20.35
2016-12-14T06:04:38.040Z,20.35
2016-12-14T06:05:38.028Z,20.34
2016-12-14T06:06:38.010Z,20.33
2016-12-14T06:07:37.674Z,20.33
2016-12-14T06:08:37.658Z,20.34
2016-12-14T06:09:37.962Z,20.33
2016-12-14T06:10:37.624Z,20.34
2016-12-14T06:11:37.929Z,20.33
2016-12-14T06:12:37.912Z,20.4
2016-12-14T06:13:37.893Z,20.4
2016-12-14T06:14:37.881Z,20.34
2016-12-14T06:15:37.856Z,20.41
2016-12-14T06:16:37.862Z,20.4
2016-12-14T06:17:37.542Z,20.33
2016-12-14T06:18:37.816Z,20.33
2016-12-14T06:19:37.480Z,20.3
2016-12-14T06:20:37.790Z,20.33
2016-12-14T06:21:37.142Z,20.33
2016-12-14T06:22:37.748Z,20.4
2016-12-14T06:23:37.417Z,20.44
2016-12-14T06:24:37.717Z,20.41
2016-12-14T06:25:37.381Z,20.46
2016-12-14T06:26:37.679Z,20.51
2016-12-14T06:27:37.662Z,20.48
2016-12-14T06:28:37.649Z,20.48
2016-12-14T06:29:37.630Z,20.46
2016-12-14T06:30:37.616Z,20.5
2016-12-14T06:31:37.618Z,20.48
2016-12-14T06:32:37.586Z,20.46
2016-12-14T06:33:37.567Z,20.46
2016-12-14T06:34:37.548Z,20.46
2016-12-14T06:35:37.537Z,20.5
2016-12-14T06:36:37.203Z,20.48
2016-12-14T06:37:37.498Z,20.46
2016-12-14T06:38:37.487Z,20.53
2016-12-14T06:39:37.494Z,20.5
2016-12-14T06:40:37.458Z,20.46
2016-12-14T06:41:37.115Z,20.5
2016-12-14T06:42:37.108Z,20.48
2016-12-14T06:43:37.404Z,20.57
2016-12-14T06:44:37.388Z,20.54
2016-12-14T06:45:37.375Z,20.51
2016-12-14T06:46:37.359Z,20.5
2016-12-14T06:47:37.336Z,20.5
2016-12-14T06:48:37.009Z,20.5
2016-12-14T06:49:37.310Z,20.5
2016-12-14T06:50:36.975Z,20.57
2016-12-14T06:51:37.275Z,20.61
2016-12-14T06:52:37.254Z,20.6
2016-12-14T06:53:37.247Z,20.57
2016-12-14T06:54:37.224Z,20.61
2016-12-14T06:55:36.896Z,20.64
2016-12-14T06:56:37.195Z,20.63
2016-12-14T06:57:37.176Z,20.64
2016-12-14T06:58:36.837Z,20.66
2016-12-14T06:59:37.138Z,20.61
2016-12-14T07:00:37.122Z,20.61
2016-12-14T07:01:37.109Z,20.66
2016-12-14T07:02:36.783Z,20.61
2016-12-14T07:03:36.775Z,20.68
2016-12-14T07:04:37.065Z,20.64
2016-12-14T07:05:37.042Z,20.64
2016-12-14T07:06:37.030Z,20.71
2016-12-14T07:07:37.020Z,20.69
2016-12-14T07:08:36.999Z,20.68
2016-12-14T07:09:36.672Z,20.71
2016-12-14T07:10:36.977Z,20.72
2016-12-14T07:11:36.959Z,20.61
2016-12-14T07:12:36.933Z,20.71
2016-12-14T07:13:36.911Z,20.66
2016-12-14T07:14:36.581Z,20.71
2016-12-14T07:15:36.876Z,20.72
2016-12-14T07:16:36.863Z,20.64
2016-12-14T07:17:36.848Z,20.63
2016-12-14T07:18:36.834Z,20.64
2016-12-14T07:19:36.819Z,20.61
2016-12-14T07:20:36.857Z,20.68
2016-12-14T07:21:36.467Z,20.68
2016-12-14T07:22:36.764Z,20.61
2016-12-14T07:23:36.752Z,20.63
2016-12-14T07:24:36.733Z,20.63
2016-12-14T07:25:36.716Z,20.68
2016-12-14T07:26:36.715Z,20.6
2016-12-14T07:27:36.689Z,20.75
2016-12-14T07:28:36.667Z,20.71
2016-12-14T07:29:36.341Z,20.75
2016-12-14T07:30:36.636Z,20.76
2016-12-14T07:31:36.651Z,20.63
2016-12-14T07:32:36.601Z,20.73
2016-12-14T07:33:36.786Z,20.78
2016-12-14T07:34:36.567Z,20.79
2016-12-14T07:35:36.262Z,20.72
2016-12-14T07:36:36.581Z,20.73
2016-12-14T07:37:36.206Z,20.76
2016-12-14T07:38:36.512Z,20.75
2016-12-14T07:39:36.495Z,20.72
2016-12-14T07:40:36.532Z,20.79
2016-12-14T07:41:36.460Z,20.78
2016-12-14T07:42:36.127Z,20.75
2016-12-14T07:43:36.426Z,20.75
2016-12-14T07:44:35.775Z,20.72
2016-12-14T07:45:36.082Z,20.81
2016-12-14T07:46:36.382Z,20.71
2016-12-14T07:47:36.385Z,20.71
2016-12-14T07:48:36.343Z,20.75
2016-12-14T07:49:36.013Z,20.79
2016-12-14T07:50:36.313Z,20.73
2016-12-14T07:51:36.296Z,20.75
2016-12-14T07:52:35.974Z,20.76
2016-12-14T07:53:35.954Z,20.75
2016-12-14T07:54:36.253Z,20.78
2016-12-14T07:55:36.234Z,20.76
2016-12-14T07:56:36.214Z,20.78
2016-12-14T07:57:36.207Z,20.76
2016-12-14T07:58:36.184Z,20.76
2016-12-14T07:59:36.163Z,20.75
2016-12-14T08:00:35.844Z,20.72
2016-12-14T08:01:35.822Z,20.76
2016-12-14T08:02:36.119Z,20.73
2016-12-14T08:03:36.099Z,20.71
2016-12-14T08:04:36.092Z,20.75
2016-12-14T08:05:36.074Z,20.72
2016-12-14T08:06:35.750Z,20.75
2016-12-14T08:07:36.041Z,20.76
2016-12-14T08:08:36.020Z,20.69
2016-12-14T08:09:36.006Z,20.76
2016-12-14T08:10:35.991Z,20.76
2016-12-14T08:11:35.976Z,20.78
2016-12-14T08:12:35.641Z,20.76
2016-12-14T08:13:35.995Z,20.75
2016-12-14T08:14:35.926Z,20.79
2016-12-14T08:15:35.905Z,20.78
2016-12-14T08:16:35.894Z,20.78
2016-12-14T08:17:35.244Z,20.73
2016-12-14T08:18:35.871Z,20.76
2016-12-14T08:19:35.527Z,20.76
2016-12-14T08:20:35.831Z,20.78
2016-12-14T08:21:35.814Z,20.72
2016-12-14T08:22:35.486Z,20.76
2016-12-14T08:23:35.777Z,20.76
2016-12-14T08:24:35.453Z,20.73
2016-12-14T08:25:35.430Z,20.73
2016-12-14T08:26:35.726Z,20.71
2016-12-14T08:27:35.720Z,20.76
2016-12-14T08:28:35.703Z,20.79
2016-12-14T08:29:35.685Z,20.71
2016-12-14T08:30:35.350Z,20.79
2016-12-14T08:31:35.341Z,20.71
2016-12-14T08:32:35.634Z,20.79
2016-12-14T08:33:35.614Z,20.73
2016-12-14T08:34:35.607Z,20.75
2016-12-14T08:35:35.596Z,20.76
2016-12-14T08:36:35.565Z,20.78
2016-12-14T08:37:35.236Z,20.72
2016-12-14T08:38:35.542Z,20.83
2016-12-14T08:39:35.525Z,20.83
2016-12-14T08:40:35.502Z,20.83
2016-12-14T08:41:35.175Z,20.85
2016-12-14T08:42:35.474Z,20.83
2016-12-14T08:43:35.458Z,20.83
2016-12-14T08:44:35.437Z,20.87
2016-12-14T08:45:35.426Z,20.83
2016-12-14T08:46:35.407Z,20.85
2016-12-14T08:47:35.074Z,20.85
2016-12-14T08:48:35.372Z,20.87
2016-12-14T08:49:35.369Z,20.85
2016-12-14T08:50:35.340Z,20.83
2016-12-14T08:51:35.331Z,20.83
2016-12-14T08:52:34.994Z,20.88
2016-12-14T08:53:35.294Z,20.83
2016-12-14T08:54:35.276Z,20.85
2016-12-14T08:55:34.946Z,20.81
2016-12-14T08:56:35.247Z,20.81
2016-12-14T08:57:35.259Z,20.83
2016-12-14T08:58:34.896Z,20.82
2016-12-14T08:59:35.201Z,20.78
2016-12-14T09:00:35.186Z,20.79
2016-12-14T09:01:35.166Z,20.75
2016-12-14T09:02:35.155Z,20.83
2016-12-14T09:03:35.142Z,20.72
2016-12-14T09:04:34.486Z,20.76
2016-12-14T09:05:34.785Z,20.79
2016-12-14T09:06:35.097Z,20.76
2016-12-14T09:07:35.080Z,20.81
2016-12-14T09:08:35.058Z,20.76
2016-12-14T09:09:34.732Z,20.75
2016-12-14T09:10:35.024Z,20.79
2016-12-14T09:11:35.010Z,20.76
2016-12-14T09:12:34.989Z,20.79
2016-12-14T09:13:34.973Z,20.76
2016-12-14T09:14:34.958Z,20.82
2016-12-14T09:15:34.949Z,20.79
2016-12-14T09:16:34.924Z,20.85
2016-12-14T09:17:34.916Z,20.9
2016-12-14T09:18:37.442Z,20.87
2016-12-14T09:19:34.876Z,20.87
2016-12-14T09:20:34.858Z,20.87
2016-12-14T09:21:34.844Z,20.88
2016-12-14T09:22:34.835Z,20.9
2016-12-14T09:23:34.814Z,20.91
2016-12-14T09:24:34.800Z,20.83
2016-12-14T09:25:34.778Z,20.9
2016-12-14T09:26:34.449Z,20.79
2016-12-14T09:27:34.749Z,20.85
2016-12-14T09:28:34.736Z,20.91
2016-12-14T09:29:34.396Z,20.85
2016-12-14T09:30:34.699Z,20.16
2016-12-14T09:31:34.716Z,18.75
2016-12-14T09:32:34.665Z,18.31
2016-12-14T09:33:34.337Z,18.2
2016-12-14T09:34:34.320Z,18.54
2016-12-14T09:35:34.363Z,19.06
2016-12-14T09:36:34.607Z,19.28
2016-12-14T09:37:34.589Z,19.67
2016-12-14T09:38:34.253Z,19.87
2016-12-14T09:39:34.960Z,19.97
2016-12-14T09:40:34.535Z,20.15
2016-12-14T09:41:34.528Z,20.23
2016-12-14T09:42:34.513Z,20.33
2016-12-14T09:43:34.175Z,20.35
2016-12-14T09:44:34.472Z,20.41
2016-12-14T09:45:34.457Z,20.38
2016-12-14T09:46:34.441Z,20.4
2016-12-14T09:47:34.430Z,20.42
2016-12-14T09:48:34.093Z,20.56
2016-12-14T09:49:34.390Z,20.51
2016-12-14T09:50:34.372Z,20.61
2016-12-14T09:51:34.363Z,20.61
2016-12-14T09:52:34.064Z,20.58
2016-12-14T09:53:34.327Z,20.61
2016-12-14T09:54:33.998Z,20.57
2016-12-14T09:55:33.979Z,20.61
2016-12-14T09:56:33.649Z,20.64
2016-12-14T09:57:34.266Z,20.64
2016-12-14T09:58:34.247Z,20.66
2016-12-14T09:59:34.232Z,20.61
2016-12-14T10:00:33.898Z,20.64
2016-12-14T10:01:33.883Z,20.66
2016-12-14T10:02:34.179Z,20.64
2016-12-14T10:03:34.170Z,20.63
2016-12-14T10:04:34.149Z,20.66
2016-12-14T10:05:33.844Z,20.69
2016-12-14T10:06:33.800Z,20.75
2016-12-14T10:07:34.104Z,20.72
2016-12-14T10:08:34.088Z,20.75
2016-12-14T10:09:34.078Z,20.78
2016-12-14T10:10:33.740Z,20.78
2016-12-14T10:11:34.035Z,20.75
2016-12-14T10:12:34.017Z,20.79
2016-12-14T10:13:33.998Z,20.76
2016-12-14T10:14:33.993Z,20.73
2016-12-14T10:15:33.968Z,20.79
2016-12-14T10:16:33.963Z,20.72
2016-12-14T10:17:33.939Z,20.78
2016-12-14T10:18:33.916Z,20.79
2016-12-14T10:19:33.918Z,20.78
2016-12-14T10:20:33.885Z,20.73
2016-12-14T10:21:33.872Z,20.72
2016-12-14T10:22:33.857Z,20.64
2016-12-14T10:23:33.844Z,20.72
2016-12-14T10:24:33.822Z,20.73
2016-12-14T10:25:33.813Z,20.72
2016-12-14T10:26:33.484Z,20.72
2016-12-14T10:27:33.780Z,20.68
2016-12-14T10:28:33.443Z,20.72
2016-12-14T10:29:33.754Z,20.81
2016-12-14T10:30:33.725Z,20.72
2016-12-14T10:31:33.716Z,20.72
2016-12-14T10:32:33.721Z,20.71
2016-12-14T10:33:33.371Z,20.75
2016-12-14T10:34:33.668Z,20.71
2016-12-14T10:35:33.655Z,20.75
2016-12-14T10:36:33.642Z,20.72
2016-12-14T10:37:33.615Z,20.73
2016-12-14T10:38:33.608Z,20.71
2016-12-14T10:39:33.585Z,20.76
2016-12-14T10:40:32.932Z,20.76
2016-12-14T10:41:33.241Z,20.75
2016-12-14T10:42:33.227Z,20.79
2016-12-14T10:43:33.214Z,20.76
2016-12-14T10:44:33.504Z,20.78
2016-12-14T10:45:33.167Z,20.78
2016-12-14T10:46:33.477Z,20.73
2016-12-14T10:47:33.457Z,20.73
2016-12-14T10:48:33.442Z,20.78
2016-12-14T10:49:33.427Z,20.71
2016-12-14T10:50:33.409Z,20.71
2016-12-14T10:51:33.394Z,20.73
2016-12-14T10:52:32.749Z,20.73
2016-12-14T10:53:33.046Z,20.79
2016-12-14T10:54:33.345Z,20.64
2016-12-14T10:55:33.008Z,20.76
2016-12-14T10:56:33.314Z,20.73
2016-12-14T10:57:33.298Z,20.66
2016-12-14T10:58:33.285Z,20.76
2016-12-14T10:59:33.311Z,20.81
2016-12-14T11:00:33.245Z,20.73
2016-12-14T11:01:33.236Z,20.75
2016-12-14T11:02:33.217Z,20.76
2016-12-14T11:03:33.202Z,20.73
2016-12-14T11:04:33.181Z,20.72
2016-12-14T11:05:33.167Z,19.83
2016-12-14T11:06:32.836Z,19.3
2016-12-14T11:07:33.137Z,19.2
2016-12-14T11:08:33.122Z,19.42
2016-12-14T11:09:33.099Z,19.79
2016-12-14T11:10:33.088Z,19.9
2016-12-14T11:11:33.069Z,20.22
2016-12-14T11:12:33.059Z,20.25
2016-12-14T11:13:32.726Z,20.42
2016-12-14T11:14:32.707Z,20.44
2016-12-14T11:15:33.006Z,20.48
2016-12-14T11:16:33.097Z,20.61
2016-12-14T11:17:32.345Z,20.71
2016-12-14T11:18:32.960Z,20.68
2016-12-14T11:19:32.942Z,20.66
2016-12-14T11:20:32.604Z,20.63
2016-12-14T11:21:32.277Z,20.75
2016-12-14T11:22:32.894Z,20.61
2016-12-14T11:23:32.876Z,20.68
2016-12-14T11:24:32.545Z,20.64
2016-12-14T11:25:32.842Z,20.66
2016-12-14T11:26:32.831Z,20.64
2016-12-14T11:27:32.811Z,20.64
2016-12-14T11:28:32.481Z,20.66
2016-12-14T11:29:32.787Z,20.66
2016-12-14T11:30:32.797Z,20.64
2016-12-14T11:31:32.436Z,20.64
2016-12-14T11:32:32.739Z,20.75
2016-12-14T11:33:32.714Z,20.63
2016-12-14T11:34:32.697Z,20.6
2016-12-14T11:35:32.680Z,20.69
2016-12-14T11:36:32.352Z,20.68
2016-12-14T11:37:32.649Z,20.64
2016-12-14T11:38:32.629Z,20.68
2016-12-14T11:39:32.619Z,20.63
2016-12-14T11:40:32.602Z,20.73
2016-12-14T11:41:32.275Z,20.72
2016-12-14T11:42:32.254Z,20.73
2016-12-14T11:43:32.657Z,20.68
2016-12-14T11:44:32.223Z,20.82
2016-12-14T11:45:32.518Z,20.72
2016-12-14T11:46:32.502Z,20.75
2016-12-14T11:47:32.184Z,20.78
2016-12-14T11:48:34.901Z,20.76
2016-12-14T11:49:32.453Z,20.73
2016-12-14T11:50:32.128Z,20.72
2016-12-14T11:51:32.439Z,20.75
2016-12-14T11:52:32.094Z,20.64
2016-12-14T11:53:32.847Z,20.78
2016-12-14T11:54:32.070Z,20.76
2016-12-14T11:55:32.048Z,20.64
2016-12-14T11:56:32.025Z,20.73
2016-12-14T11:57:32.013Z,20.75
2016-12-14T11:58:32.345Z,20.73
2016-12-14T11:59:32.298Z,20.73
2016-12-14T12:00:32.280Z,20.76
2016-12-14T12:01:31.945Z,20.75
2016-12-14T12:02:32.248Z,20.76
2016-12-14T12:03:32.241Z,20.72
2016-12-14T12:04:32.220Z,20.76
2016-12-14T12:05:31.890Z,20.75
2016-12-14T12:06:32.179Z,20.72
2016-12-14T12:07:32.168Z,20.81
2016-12-14T12:08:32.149Z,20.79
2016-12-14T12:09:32.132Z,20.78
2016-12-14T12:10:32.125Z,20.75
2016-12-14T12:11:32.101Z,20.75
2016-12-14T12:12:32.086Z,20.75
2016-12-14T12:13:32.103Z,20.82
2016-12-14T12:14:32.057Z,20.79
2016-12-14T12:15:32.044Z,20.72
2016-12-14T12:16:32.027Z,20.71
2016-12-14T12:17:31.712Z,20.79
2016-12-14T12:18:31.677Z,20.79
2016-12-14T12:19:31.973Z,20.81
2016-12-14T12:20:31.651Z,20.79
2016-12-14T12:21:31.946Z,20.71
2016-12-14T12:22:31.614Z,20.76
2016-12-14T12:23:31.595Z,20.75
2016-12-14T12:24:31.901Z,20.79
2016-12-14T12:25:31.571Z,20.79
2016-12-14T12:26:31.913Z,20.76
2016-12-14T12:27:31.531Z,20.78
2016-12-14T12:28:31.829Z,20.82
2016-12-14T12:29:31.823Z,20.75
2016-12-14T12:30:31.798Z,20.76
2016-12-14T12:31:31.780Z,20.76
2016-12-14T12:32:31.766Z,20.71
2016-12-14T12:33:31.751Z,20.82
2016-12-14T12:34:31.731Z,20.76
2016-12-14T12:35:31.717Z,20.9
2016-12-14T12:36:31.381Z,20.9
2016-12-14T12:37:31.690Z,20.85
2016-12-14T12:38:31.355Z,20.71
2016-12-14T12:39:31.651Z,20.75
2016-12-14T12:40:31.638Z,20.81
2016-12-14T12:41:31.305Z,20.69
2016-12-14T12:42:31.290Z,20.73
2016-12-14T12:43:31.591Z,20.79
2016-12-14T12:44:31.571Z,20.87
2016-12-14T12:45:31.554Z,20.85
2016-12-14T12:46:31.543Z,20.85
2016-12-14T12:47:31.209Z,20.78
2016-12-14T12:48:30.876Z,20.76
2016-12-14T12:49:31.490Z,20.75
2016-12-14T12:50:31.470Z,20.79
2016-12-14T12:51:31.465Z,20.79
2016-12-14T12:52:31.137Z,20.83
2016-12-14T12:53:31.114Z,20.83
2016-12-14T12:54:31.103Z,20.83
2016-12-14T12:55:31.400Z,20.85